createdAt,value
2017-11-18T00:01:40.488Z,9.55
2017-11-18T00:04:08.069Z,9.48
2017-11-18T00:06:36.374Z,9.52
2017-11-18T00:09:03.988Z,9.55
2017-11-18T00:11:31.612Z,9.72
2017-11-18T00:13:59.387Z,9.78
2017-11-18T00:16:27.907Z,9.57
2017-11-18T00:18:55.534Z,9.66
2017-11-18T00:21:23.142Z,9.89
2017-11-18T00:23:50.863Z,10.00
2017-11-18T00:26:18.656Z,9.87
2017-11-18T00:28:47.208Z,9.89
2017-11-18T00:31:14.844Z,9.97
2017-11-18T00:33:42.438Z,9.97
2017-11-18T00:36:10.663Z,9.88
2017-11-18T00:38:38.342Z,9.98
2017-11-18T00:41:05.970Z,9.67
2017-11-18T00:43:33.585Z,9.64
2017-11-18T00:46:01.182Z,9.91
2017-11-18T00:48:28.768Z,10.05
2017-11-18T00:50:56.369Z,9.91
2017-11-18T00:53:23.984Z,9.80
2017-11-18T00:55:51.741Z,9.83
2017-11-18T00:58:19.539Z,9.90
2017-11-18T01:00:48.086Z,10.15
2017-11-18T01:03:15.699Z,10.13
2017-11-18T01:05:43.310Z,10.07
2017-11-18T01:08:10.997Z,10.04
2017-11-18T01:10:38.820Z,10.07
2017-11-18T01:13:06.447Z,9.91
2017-11-18T01:15:34.090Z,9.79
2017-11-18T01:18:01.859Z,9.64
2017-11-18T01:20:29.467Z,9.73
2017-11-18T01:22:57.281Z,9.68
2017-11-18T01:25:25.077Z,9.78
2017-11-18T01:27:52.744Z,9.80
2017-11-18T01:30:20.402Z,9.89
2017-11-18T01:32:47.993Z,9.95
2017-11-18T01:35:15.833Z,9.92
2017-11-18T01:37:43.779Z,9.59
2017-11-18T01:40:11.561Z,9.90
2017-11-18T01:42:39.370Z,9.97
2017-11-18T01:45:07.000Z,9.89
2017-11-18T01:47:34.814Z,9.95
2017-11-18T01:50:02.586Z,10.07
2017-11-18T01:52:30.396Z,9.85
2017-11-18T01:54:59.041Z,9.64
2017-11-18T01:57:26.965Z,9.92
2017-11-18T01:59:54.560Z,9.36
2017-11-18T02:02:33.944Z,9.57
2017-11-18T02:05:01.611Z,9.93
2017-11-18T02:07:29.366Z,10.04
2017-11-18T02:09:56.959Z,10.07
2017-11-18T02:12:24.699Z,10.09
2017-11-18T02:14:52.317Z,10.14
2017-11-18T02:17:20.006Z,9.93
2017-11-18T02:19:47.657Z,9.94
2017-11-18T02:22:15.242Z,10.05
2017-11-18T02:24:42.853Z,10.16
2017-11-18T02:27:10.433Z,10.34
2017-11-18T02:29:38.316Z,10.37
2017-11-18T02:32:06.793Z,10.39
2017-11-18T02:34:34.363Z,10.41
2017-11-18T02:37:02.706Z,10.40
2017-11-18T02:39:30.325Z,10.40
2017-11-18T02:41:58.145Z,10.52
2017-11-18T02:44:26.686Z,10.68
2017-11-18T02:46:54.344Z,10.69
2017-11-18T02:49:22.135Z,10.56
2017-11-18T02:51:49.905Z,10.63
2017-11-18T02:54:18.142Z,10.66
2017-11-18T02:56:45.909Z,10.46
2017-11-18T02:59:14.001Z,10.54
2017-11-18T03:01:41.606Z,10.31
2017-11-18T03:04:09.223Z,10.15
2017-11-18T03:06:36.782Z,9.99
2017-11-18T03:09:04.548Z,10.28
2017-11-18T03:11:32.336Z,10.14
2017-11-18T03:14:00.164Z,10.09
2017-11-18T03:16:27.835Z,9.76
2017-11-18T03:18:55.591Z,9.99
2017-11-18T03:21:23.359Z,10.16
2017-11-18T03:23:50.981Z,9.98
2017-11-18T03:26:18.759Z,9.56
2017-11-18T03:28:46.549Z,9.82
2017-11-18T03:31:14.203Z,9.73
2017-11-18T03:33:42.568Z,10.09
2017-11-18T03:36:10.316Z,9.93
2017-11-18T03:38:37.945Z,10.01
2017-11-18T03:41:05.545Z,10.03
2017-11-18T03:43:33.148Z,10.02
2017-11-18T03:46:00.815Z,9.75
2017-11-18T03:48:28.451Z,9.60
2017-11-18T03:50:56.284Z,9.51
2017-11-18T03:53:23.914Z,9.63
2017-11-18T03:55:51.482Z,9.73
2017-11-18T03:58:19.265Z,9.91
2017-11-18T04:00:52.511Z,10.01
2017-11-18T04:03:20.302Z,9.78
2017-11-18T04:05:47.961Z,9.56
2017-11-18T04:08:15.575Z,9.59
2017-11-18T04:10:43.412Z,9.43
2017-11-18T04:13:11.321Z,9.13
2017-11-18T04:15:38.990Z,9.54
2017-11-18T04:18:06.907Z,9.25
2017-11-18T04:20:34.589Z,9.52
2017-11-18T04:23:02.260Z,9.60
2017-11-18T04:25:29.834Z,9.65
2017-11-18T04:27:57.700Z,9.60
2017-11-18T04:30:25.445Z,9.62
2017-11-18T04:32:53.034Z,9.44
2017-11-18T04:35:20.804Z,9.27
2017-11-18T04:37:48.553Z,9.28
2017-11-18T04:40:16.223Z,9.39
2017-11-18T04:42:44.040Z,9.17
2017-11-18T04:45:11.741Z,9.49
2017-11-18T04:47:39.428Z,9.52
2017-11-18T04:50:07.139Z,9.60
2017-11-18T04:52:34.847Z,9.35
2017-11-18T04:55:03.403Z,9.57
2017-11-18T04:57:31.046Z,9.69
2017-11-18T04:59:59.471Z,9.64
2017-11-18T05:02:27.112Z,9.53
2017-11-18T05:04:54.770Z,9.72
2017-11-18T05:07:22.328Z,9.83
2017-11-18T05:09:49.961Z,9.71
2017-11-18T05:12:17.810Z,9.76
2017-11-18T05:14:45.435Z,9.66
2017-11-18T05:17:13.035Z,9.81
2017-11-18T05:19:40.837Z,9.85
2017-11-18T05:22:08.423Z,9.55
2017-11-18T05:24:36.058Z,9.46
2017-11-18T05:27:03.816Z,9.59
2017-11-18T05:29:31.546Z,9.81
2017-11-18T05:31:59.845Z,9.81
2017-11-18T05:34:27.657Z,9.70
2017-11-18T05:36:55.446Z,9.62
2017-11-18T05:39:23.215Z,9.73
2017-11-18T05:41:51.019Z,9.42
2017-11-18T05:44:18.625Z,9.65
2017-11-18T05:46:47.156Z,9.71
2017-11-18T05:49:14.816Z,9.85
2017-11-18T05:51:42.428Z,9.78
2017-11-18T05:54:10.063Z,9.63
2017-11-18T05:56:37.723Z,9.77
2017-11-18T05:59:06.289Z,9.97
2017-11-18T06:01:33.899Z,9.90
2017-11-18T06:04:01.543Z,9.81
2017-11-18T06:06:29.104Z,10.08
2017-11-18T06:08:56.725Z,10.11
2017-11-18T06:11:24.413Z,9.88
2017-11-18T06:13:51.936Z,9.85
2017-11-18T06:16:19.584Z,9.84
2017-11-18T06:18:47.131Z,9.85
2017-11-18T06:21:14.670Z,9.96
2017-11-18T06:23:42.326Z,9.78
2017-11-18T06:26:09.836Z,9.86
2017-11-18T06:28:37.365Z,9.62
2017-11-18T06:31:04.946Z,9.50
2017-11-18T06:33:32.474Z,9.65
2017-11-18T06:35:59.992Z,9.80
2017-11-18T06:38:28.316Z,9.65
2017-11-18T06:40:55.859Z,9.82
2017-11-18T06:43:23.460Z,9.80
2017-11-18T06:45:51.110Z,9.68
2017-11-18T06:48:18.708Z,9.57
2017-11-18T06:50:46.282Z,9.98
2017-11-18T06:53:13.940Z,9.96
2017-11-18T06:55:41.496Z,10.05
2017-11-18T06:58:09.015Z,9.89
2017-11-18T07:00:36.580Z,9.96
2017-11-18T07:03:04.172Z,10.12
2017-11-18T07:05:31.695Z,10.25
2017-11-18T07:07:59.379Z,10.09
2017-11-18T07:10:27.171Z,10.27
2017-11-18T07:12:54.808Z,10.24
2017-11-18T07:15:22.484Z,10.03
2017-11-18T07:17:50.175Z,10.26
2017-11-18T07:20:17.800Z,10.34
2017-11-18T07:22:45.403Z,10.44
2017-11-18T07:25:13.191Z,10.58
2017-11-18T07:27:40.763Z,10.69
2017-11-18T07:30:08.453Z,9.84
2017-11-18T07:32:36.255Z,10.20
2017-11-18T07:35:03.795Z,10.37
2017-11-18T07:37:31.438Z,10.57
2017-11-18T07:39:59.247Z,10.68
2017-11-18T07:42:26.879Z,10.81
2017-11-18T07:44:54.559Z,10.74
2017-11-18T07:47:22.135Z,10.87
2017-11-18T07:49:50.043Z,11.01
2017-11-18T07:52:17.711Z,11.16
2017-11-18T07:54:46.123Z,11.32
2017-11-18T07:57:18.373Z,11.45
2017-11-18T07:59:46.019Z,11.49
2017-11-18T08:02:13.686Z,11.50
2017-11-18T08:04:41.585Z,11.60
2017-11-18T08:07:09.210Z,11.55
2017-11-18T08:09:36.926Z,11.73
2017-11-18T08:12:04.742Z,11.68
2017-11-18T08:14:32.906Z,11.92
2017-11-18T08:17:00.498Z,12.05
2017-11-18T08:19:28.151Z,12.10
2017-11-18T08:21:55.773Z,12.33
2017-11-18T08:24:23.401Z,12.37
2017-11-18T08:26:50.932Z,12.44
2017-11-18T08:29:18.503Z,12.67
2017-11-18T08:31:46.114Z,12.58
2017-11-18T08:34:13.690Z,12.81
2017-11-18T08:36:42.345Z,13.24
2017-11-18T08:39:10.019Z,13.38
2017-11-18T08:41:37.644Z,13.64
2017-11-18T08:44:05.506Z,13.55
2017-11-18T08:46:33.170Z,13.60
2017-11-18T08:49:00.978Z,13.82
2017-11-18T08:51:28.593Z,13.80
2017-11-18T08:53:57.036Z,13.45
2017-11-18T08:56:24.665Z,13.62
2017-11-18T08:58:52.260Z,13.85
2017-11-18T09:01:19.843Z,13.86
2017-11-18T09:03:47.399Z,13.73
2017-11-18T09:06:14.991Z,13.65
2017-11-18T09:08:42.645Z,13.88
2017-11-18T09:11:10.230Z,13.85
2017-11-18T09:13:38.612Z,13.74
2017-11-18T09:16:06.294Z,14.01
2017-11-18T09:18:34.121Z,14.40
2017-11-18T09:21:02.407Z,14.31
2017-11-18T09:23:29.996Z,14.51
2017-11-18T09:25:57.613Z,14.08
2017-11-18T09:28:25.251Z,14.19
2017-11-18T09:30:52.867Z,14.30
2017-11-18T09:33:21.237Z,14.49
2017-11-18T09:35:49.006Z,14.78
2017-11-18T09:38:17.202Z,14.74
2017-11-18T09:40:44.817Z,14.89
2017-11-18T09:43:12.463Z,14.88
2017-11-18T09:45:40.077Z,15.16
2017-11-18T09:48:07.906Z,15.65
2017-11-18T09:50:35.697Z,15.42
2017-11-18T09:53:03.319Z,15.60
2017-11-18T09:55:30.888Z,15.72
2017-11-18T09:57:58.512Z,15.35
2017-11-18T10:00:26.129Z,15.80
2017-11-18T10:02:53.664Z,15.46
2017-11-18T10:05:21.284Z,15.69
2017-11-18T10:07:48.881Z,15.66
2017-11-18T10:10:16.660Z,15.62
2017-11-18T10:12:44.417Z,15.80
2017-11-18T10:15:12.021Z,16.47
2017-11-18T10:17:40.189Z,16.29
2017-11-18T10:20:08.780Z,16.00
2017-11-18T10:22:36.402Z,16.01
2017-11-18T10:25:04.216Z,16.26
2017-11-18T10:27:31.764Z,16.30
2017-11-18T10:29:59.491Z,16.48
2017-11-18T10:32:27.086Z,16.34
2017-11-18T10:34:54.900Z,15.86
2017-11-18T10:37:23.370Z,15.72
2017-11-18T10:39:50.950Z,15.52
2017-11-18T10:42:18.523Z,15.55
2017-11-18T10:44:46.100Z,15.50
2017-11-18T10:47:14.593Z,15.86
2017-11-18T10:49:42.243Z,15.64
2017-11-18T10:52:10.005Z,15.72
2017-11-18T10:54:37.704Z,15.65
2017-11-18T10:57:05.526Z,15.46
2017-11-18T10:59:33.298Z,15.12
2017-11-18T11:02:00.945Z,15.28
2017-11-18T11:04:28.787Z,15.30
2017-11-18T11:06:56.543Z,15.18
2017-11-18T11:09:24.376Z,15.05
2017-11-18T11:11:52.479Z,14.93
2017-11-18T11:14:20.265Z,15.07
2017-11-18T11:16:47.914Z,15.07
2017-11-18T11:19:15.530Z,14.94
2017-11-18T11:21:43.388Z,14.74
2017-11-18T11:24:11.049Z,14.61
2017-11-18T11:26:38.666Z,14.63
2017-11-18T11:29:06.468Z,14.63
2017-11-18T11:31:34.070Z,14.48
2017-11-18T11:34:01.641Z,14.49
2017-11-18T11:36:29.340Z,14.36
2017-11-18T11:38:56.943Z,14.33
2017-11-18T11:41:24.547Z,14.43
2017-11-18T11:43:52.114Z,14.45
2017-11-18T11:46:19.759Z,14.40
2017-11-18T11:48:47.330Z,14.46
2017-11-18T11:51:14.922Z,14.46
2017-11-18T11:53:42.526Z,14.51
2017-11-18T11:56:10.132Z,14.53
2017-11-18T11:58:37.707Z,14.34
2017-11-18T12:01:05.325Z,14.02
2017-11-18T12:03:32.847Z,14.22
2017-11-18T12:06:00.458Z,14.25
2017-11-18T12:08:28.101Z,13.74
2017-11-18T12:10:55.982Z,13.93
2017-11-18T12:13:23.601Z,14.02
2017-11-18T12:15:51.226Z,14.25
2017-11-18T12:18:18.747Z,14.22
2017-11-18T12:20:46.591Z,14.25
2017-11-18T12:23:14.192Z,14.28
2017-11-18T12:25:42.006Z,14.29
2017-11-18T12:28:10.278Z,14.01
2017-11-18T12:30:37.890Z,13.97
2017-11-18T12:33:05.704Z,13.93
2017-11-18T12:35:33.385Z,14.09
2017-11-18T12:38:01.107Z,14.22
2017-11-18T12:40:28.700Z,13.90
2017-11-18T12:42:56.316Z,13.93
2017-11-18T12:45:23.944Z,13.85
2017-11-18T12:47:51.588Z,13.85
2017-11-18T12:50:19.376Z,13.82
2017-11-18T12:52:47.166Z,13.78
2017-11-18T12:55:14.788Z,13.63
2017-11-18T12:57:42.573Z,13.52
2017-11-18T13:00:10.223Z,13.58
2017-11-18T13:02:37.867Z,13.82
2017-11-18T13:05:05.561Z,13.59
2017-11-18T13:07:33.179Z,13.60
2017-11-18T13:10:00.945Z,13.57
2017-11-18T13:12:28.695Z,13.59
2017-11-18T13:14:56.306Z,13.49
2017-11-18T13:17:23.939Z,13.67
2017-11-18T13:19:51.699Z,13.31
2017-11-18T13:22:20.279Z,13.72
2017-11-18T13:24:47.843Z,13.64
2017-11-18T13:27:16.229Z,13.70
2017-11-18T13:29:43.859Z,13.66
2017-11-18T13:32:11.679Z,13.26
2017-11-18T13:34:39.305Z,13.41
2017-11-18T13:37:06.922Z,13.40
2017-11-18T13:39:35.406Z,13.51
2017-11-18T13:42:03.051Z,13.58
2017-11-18T13:44:30.819Z,13.50
2017-11-18T13:46:58.436Z,13.44
2017-11-18T13:49:26.206Z,13.40
2017-11-18T13:51:54.019Z,13.39
2017-11-18T13:54:21.665Z,13.59
2017-11-18T13:56:49.215Z,13.61
2017-11-18T13:59:16.775Z,13.65
2017-11-18T14:01:44.369Z,13.71
2017-11-18T14:04:12.214Z,13.62
2017-11-18T14:06:39.823Z,13.49
2017-11-18T14:09:07.447Z,13.50
2017-11-18T14:11:35.031Z,13.43
2017-11-18T14:14:02.800Z,13.44
2017-11-18T14:16:30.437Z,13.29
2017-11-18T14:18:58.042Z,13.36
2017-11-18T14:21:25.590Z,13.29
2017-11-18T14:23:53.240Z,13.15
2017-11-18T14:26:20.913Z,13.41
2017-11-18T14:28:48.698Z,13.33
2017-11-18T14:31:16.437Z,13.08
2017-11-18T14:33:44.398Z,13.02
2017-11-18T14:36:12.073Z,13.01
2017-11-18T14:38:39.722Z,12.92
2017-11-18T14:41:07.810Z,13.01
2017-11-18T14:43:36.448Z,12.96
2017-11-18T14:46:05.091Z,12.75
2017-11-18T14:48:32.809Z,12.85
2017-11-18T14:51:00.401Z,12.91
2017-11-18T14:53:28.158Z,12.79
2017-11-18T14:55:56.081Z,12.79
2017-11-18T14:58:23.920Z,12.76
2017-11-18T15:00:52.545Z,12.65
2017-11-18T15:03:20.279Z,12.53
2017-11-18T15:05:48.222Z,12.65
2017-11-18T15:08:16.039Z,12.81
2017-11-18T15:10:43.873Z,13.21
2017-11-18T15:20:12.835Z,12.26
2017-11-18T15:25:50.039Z,12.59
2017-11-18T15:28:23.115Z,12.58
2017-11-18T15:30:56.402Z,12.61
2017-11-18T15:33:26.756Z,12.52
2017-11-18T15:35:54.756Z,12.52
2017-11-18T15:38:25.933Z,12.61
2017-11-18T15:40:53.604Z,12.53
2017-11-18T15:43:26.309Z,12.66
2017-11-18T15:45:58.589Z,12.50
2017-11-18T15:48:36.887Z,12.67
2017-11-18T15:51:10.094Z,12.53
2017-11-18T15:53:43.179Z,12.21
2017-11-18T15:56:17.543Z,12.37
2017-11-18T15:58:45.907Z,12.37
2017-11-18T16:01:18.992Z,11.98
2017-11-18T16:04:01.576Z,12.24
2017-11-18T16:06:33.716Z,12.22
2017-11-18T16:09:01.393Z,12.09
2017-11-18T16:11:29.000Z,11.98
2017-11-18T16:13:56.641Z,12.03
2017-11-18T16:16:24.215Z,11.92
2017-11-18T16:18:51.825Z,11.97
2017-11-18T16:21:19.496Z,11.99
2017-11-18T16:23:48.080Z,11.91
2017-11-18T16:26:16.967Z,11.67
2017-11-18T16:28:44.579Z,11.79
2017-11-18T16:31:12.224Z,11.77
2017-11-18T16:33:39.828Z,11.70
2017-11-18T16:36:07.370Z,11.58
2017-11-18T16:38:35.218Z,11.66
2017-11-18T16:41:04.033Z,11.57
2017-11-18T16:43:31.661Z,11.40
2017-11-18T16:45:59.295Z,11.37
2017-11-18T16:48:26.952Z,11.26
2017-11-18T16:50:54.580Z,11.40
2017-11-18T16:53:22.237Z,11.40
2017-11-18T16:55:49.778Z,11.30
2017-11-18T16:58:17.642Z,11.38
2017-11-18T17:00:45.281Z,11.31
2017-11-18T17:03:14.399Z,11.25
2017-11-18T17:05:42.087Z,11.21
2017-11-18T17:08:09.701Z,11.25
2017-11-18T17:10:37.599Z,11.17
2017-11-18T17:13:05.166Z,11.19
2017-11-18T17:15:33.642Z,11.05
2017-11-18T17:18:01.187Z,11.08
2017-11-18T17:20:29.596Z,11.06
2017-11-18T17:23:03.404Z,10.92
2017-11-18T17:25:31.253Z,10.99
2017-11-18T17:27:58.994Z,11.09
2017-11-18T17:30:27.285Z,11.00
2017-11-18T17:32:55.073Z,11.00
2017-11-18T17:35:22.930Z,10.97
2017-11-18T17:37:50.537Z,10.88
2017-11-18T17:40:18.165Z,10.94
2017-11-18T17:42:45.761Z,10.92
2017-11-18T17:45:14.204Z,10.64
2017-11-18T17:47:41.833Z,10.76
2017-11-18T17:50:10.068Z,10.85
2017-11-18T17:52:37.736Z,10.58
2017-11-18T17:55:05.338Z,10.84
2017-11-18T17:57:33.127Z,10.84
2017-11-18T18:00:00.792Z,10.82
2017-11-18T18:02:28.396Z,10.63
2017-11-18T18:04:56.036Z,10.72
2017-11-18T18:07:23.589Z,10.74
2017-11-18T18:09:51.256Z,10.53
2017-11-18T18:12:19.056Z,10.64
2017-11-18T18:14:46.682Z,10.68
2017-11-18T18:17:14.275Z,10.56
2017-11-18T18:19:41.886Z,10.65
2017-11-18T18:22:09.434Z,10.42
2017-11-18T18:24:37.075Z,10.71
2017-11-18T18:27:04.731Z,10.74
2017-11-18T18:29:32.429Z,10.75
2017-11-18T18:32:00.107Z,10.42
2017-11-18T18:34:27.972Z,10.51
2017-11-18T18:36:56.358Z,10.52
2017-11-18T18:39:24.053Z,10.42
2017-11-18T18:41:52.076Z,10.40
2017-11-18T18:44:19.591Z,10.47
2017-11-18T18:46:47.292Z,10.61
2017-11-18T18:49:14.951Z,10.60
2017-11-18T18:51:43.275Z,10.55
2017-11-18T18:54:10.858Z,10.59
2017-11-18T18:56:38.684Z,10.52
2017-11-18T18:59:06.301Z,10.49
2017-11-18T19:01:33.959Z,10.43
2017-11-18T19:04:01.661Z,10.38
2017-11-18T19:06:29.285Z,10.47
2017-11-18T19:08:57.622Z,10.58
2017-11-18T19:11:25.212Z,10.46
2017-11-18T19:13:58.034Z,10.39
2017-11-18T19:16:26.562Z,10.62
2017-11-18T19:18:54.161Z,10.67
2017-11-18T19:21:21.840Z,10.66
2017-11-18T19:23:49.412Z,10.55
2017-11-18T19:26:17.019Z,10.51
2017-11-18T19:28:46.545Z,10.58
2017-11-18T19:31:14.223Z,10.60
2017-11-18T19:33:41.819Z,10.48
2017-11-18T19:36:09.504Z,10.51
2017-11-18T19:38:37.923Z,10.38
2017-11-18T19:41:05.453Z,10.39
2017-11-18T19:43:33.040Z,10.41
2017-11-18T19:46:00.988Z,10.24
2017-11-18T19:48:28.567Z,10.18
2017-11-18T19:50:56.142Z,10.22
2017-11-18T19:53:23.777Z,10.23
2017-11-18T19:55:51.454Z,10.30
2017-11-18T19:58:19.223Z,10.30
2017-11-18T20:00:46.987Z,10.25
2017-11-18T20:03:15.125Z,10.11
2017-11-18T20:05:46.970Z,10.26
2017-11-18T20:08:14.659Z,10.15
2017-11-18T20:10:42.230Z,10.20
2017-11-18T20:13:09.907Z,10.13
2017-11-18T20:18:29.256Z,10.15
2017-11-18T20:20:57.922Z,10.06
2017-11-18T20:23:25.745Z,10.12
2017-11-18T20:25:54.067Z,10.17
2017-11-18T20:28:24.091Z,10.22
2017-11-18T20:30:55.254Z,10.10
2017-11-18T20:33:22.905Z,10.14
2017-11-18T20:35:52.658Z,10.18
2017-11-18T20:38:20.940Z,10.19
2017-11-18T20:40:48.763Z,10.18
2017-11-18T20:43:17.781Z,10.16
2017-11-18T20:45:45.446Z,10.12
2017-11-18T20:48:12.990Z,9.97
2017-11-18T20:50:41.379Z,9.99
2017-11-18T20:53:09.005Z,9.99
2017-11-18T20:55:36.567Z,10.22
2017-11-18T20:58:04.431Z,10.24
2017-11-18T21:00:32.052Z,10.14
2017-11-18T21:02:59.629Z,9.95
2017-11-18T21:05:27.220Z,10.01
2017-11-18T21:07:56.261Z,10.11
2017-11-18T21:10:24.035Z,10.03
2017-11-18T21:12:51.596Z,10.09
2017-11-18T21:15:20.003Z,10.19
2017-11-18T21:17:49.190Z,10.12
2017-11-18T21:20:16.781Z,10.26
2017-11-18T21:22:44.486Z,10.25
2017-11-18T21:25:12.048Z,10.24
2017-11-18T21:27:39.914Z,10.27
2017-11-18T21:30:08.516Z,10.16
2017-11-18T21:32:36.314Z,10.17
2017-11-18T21:35:04.082Z,10.09
2017-11-18T21:37:31.732Z,10.18
2017-11-18T21:39:59.961Z,10.02
2017-11-18T21:42:27.769Z,10.14
2017-11-18T21:44:55.377Z,10.28
2017-11-18T21:47:22.968Z,10.17
2017-11-18T21:49:50.777Z,10.18
2017-11-18T21:52:18.379Z,10.11
2017-11-18T21:54:45.923Z,10.14
2017-11-18T21:57:14.335Z,10.22
2017-11-18T21:59:42.003Z,10.04
2017-11-18T22:02:09.573Z,10.11
2017-11-18T22:04:37.333Z,10.23
2017-11-18T22:07:05.002Z,10.16
2017-11-18T22:09:32.720Z,10.11
2017-11-18T22:12:00.331Z,10.16
2017-11-18T22:14:27.918Z,10.16
2017-11-18T22:16:55.608Z,10.09
2017-11-18T22:19:23.203Z,10.04
2017-11-18T22:21:50.771Z,10.08
2017-11-18T22:24:18.404Z,9.89
2017-11-18T22:26:46.395Z,10.03
2017-11-18T22:29:13.943Z,10.00
2017-11-18T22:31:41.565Z,10.02
2017-11-18T22:34:09.122Z,9.98
2017-11-18T22:36:36.712Z,10.04
2017-11-18T22:39:04.344Z,10.06
2017-11-18T22:41:32.104Z,9.97
2017-11-18T22:43:59.864Z,10.09
2017-11-18T22:46:27.504Z,10.06
2017-11-18T22:48:55.053Z,10.00
2017-11-18T22:51:22.835Z,9.61
2017-11-18T22:53:50.540Z,9.87
2017-11-18T22:56:18.063Z,9.94
2017-11-18T22:58:45.820Z,9.87
2017-11-18T23:01:13.450Z,9.90
2017-11-18T23:03:40.990Z,9.81
2017-11-18T23:06:08.558Z,9.81
2017-11-18T23:08:36.151Z,9.82
2017-11-18T23:11:03.924Z,9.79
2017-11-18T23:13:31.656Z,9.92
2017-11-18T23:15:59.297Z,9.84
2017-11-18T23:18:27.066Z,9.81
2017-11-18T23:20:54.641Z,9.86
2017-11-18T23:23:23.501Z,9.73
2017-11-18T23:25:51.044Z,9.67
2017-11-18T23:28:18.633Z,9.63
2017-11-18T23:30:46.270Z,9.65
2017-11-18T23:33:14.053Z,9.67
2017-11-18T23:35:41.578Z,9.68
2017-11-18T23:38:09.279Z,9.57
2017-11-18T23:40:36.842Z,9.37
2017-11-18T23:43:04.696Z,9.50
2017-11-18T23:45:32.344Z,9.49
2017-11-18T23:47:59.940Z,9.31
2017-11-18T23:50:27.608Z,9.41
2017-11-18T23:52:55.296Z,9.41
2017-11-18T23:55:23.094Z,9.36
2017-11-18T23:57:50.717Z,9.33
